createdAt,value
2023-05-19T00:02:09.407Z,97611.78
2023-05-19T00:07:32.664Z,97613.78
2023-05-19T00:12:53.907Z,97615.97
2023-05-19T00:18:16.595Z,97607.53
2023-05-19T00:23:37.626Z,97602.69
2023-05-19T00:28:58.525Z,97604.59
2023-05-19T00:34:20.284Z,97602.81
2023-05-19T00:39:41.529Z,97600.94
2023-05-19T00:45:02.474Z,97598.59
2023-05-19T00:50:24.439Z,97602.59
2023-05-19T00:55:46.448Z,97600.34
2023-05-19T01:01:08.556Z,97587.81
2023-05-19T01:06:29.751Z,97589.97
2023-05-19T01:11:51.009Z,97594.09
2023-05-19T01:17:17.766Z,97586.41
2023-05-19T01:22:49.077Z,97585.53
2023-05-19T01:28:16.116Z,97576.81
2023-05-19T01:33:41.263Z,97578.66
2023-05-19T01:39:02.848Z,97581.41
2023-05-19T01:44:24.258Z,97583.56
2023-05-19T01:49:45.229Z,97586.44
2023-05-19T01:55:06.890Z,97596.53
2023-05-19T02:00:48.841Z,97576.81
2023-05-19T02:06:28.076Z,97583.13
2023-05-19T02:12:02.502Z,97588.47
2023-05-19T02:17:27.127Z,97581.16
2023-05-19T02:22:49.122Z,97578.78
2023-05-19T02:28:09.885Z,97576.66
2023-05-19T02:33:31.541Z,97564.44
2023-05-19T02:38:52.629Z,97566.44
2023-05-19T02:44:13.523Z,97559.00
2023-05-19T02:49:37.934Z,97554.47
2023-05-19T02:54:58.812Z,97555.16
2023-05-19T03:00:20.194Z,97554.34
2023-05-19T03:05:43.421Z,97544.91
2023-05-19T03:11:04.507Z,97545.72
2023-05-19T03:16:25.476Z,97544.06
2023-05-19T03:21:47.536Z,97540.75
2023-05-19T03:27:08.243Z,97554.00
2023-05-19T03:32:29.598Z,97558.72
2023-05-19T03:37:51.068Z,97554.72
2023-05-19T03:43:13.193Z,97549.75
2023-05-19T03:48:41.360Z,97558.16
2023-05-19T03:54:22.613Z,97548.44
2023-05-19T03:59:45.415Z,97554.94
2023-05-19T04:05:07.286Z,97550.22
2023-05-19T04:10:28.400Z,97551.66
2023-05-19T04:15:49.670Z,97563.84
2023-05-19T04:21:10.877Z,97553.53
2023-05-19T04:26:34.120Z,97553.09
2023-05-19T04:31:56.203Z,97549.56
2023-05-19T04:37:18.031Z,97548.00
2023-05-19T04:42:41.616Z,97542.53
2023-05-19T04:48:04.551Z,97546.66
2023-05-19T04:53:25.789Z,97551.94
2023-05-19T04:58:48.947Z,97543.22
2023-05-19T05:04:10.708Z,97538.13
2023-05-19T05:09:32.009Z,97540.81
2023-05-19T05:14:55.592Z,97545.31
2023-05-19T05:20:17.172Z,97533.84
2023-05-19T05:25:38.658Z,97531.66
2023-05-19T05:30:59.825Z,97528.97
2023-05-19T05:36:21.368Z,97532.25
2023-05-19T05:41:42.686Z,97523.63
2023-05-19T05:47:06.677Z,97521.47
2023-05-19T05:52:30.456Z,97525.50
2023-05-19T05:57:52.786Z,97517.41
2023-05-19T06:03:14.906Z,97518.44
2023-05-19T06:08:36.061Z,97515.56
2023-05-19T06:13:58.509Z,97527.88
2023-05-19T06:19:45.591Z,97526.00
2023-05-19T06:25:09.034Z,97530.59
2023-05-19T06:30:30.840Z,97527.09
2023-05-19T06:36:12.233Z,97532.66
2023-05-19T06:41:36.128Z,97535.81
2023-05-19T06:46:57.489Z,97532.19
2023-05-19T06:52:18.654Z,97531.31
2023-05-19T06:57:40.176Z,97544.13
2023-05-19T07:03:02.034Z,97549.94
2023-05-19T07:08:23.834Z,97543.56
2023-05-19T07:13:45.081Z,97548.75
2023-05-19T07:19:09.611Z,97556.13
2023-05-19T07:24:31.658Z,97550.78
2023-05-19T07:29:52.844Z,97552.13
2023-05-19T07:35:14.210Z,97557.22
2023-05-19T07:40:35.387Z,97552.75
2023-05-19T07:45:56.667Z,97550.19
2023-05-19T07:51:17.544Z,97548.31
2023-05-19T07:56:38.622Z,97543.59
2023-05-19T08:01:59.870Z,97541.31
2023-05-19T08:07:20.828Z,97540.19
2023-05-19T08:12:41.709Z,97532.25
2023-05-19T08:18:03.309Z,97526.84
2023-05-19T08:23:24.495Z,97525.47
2023-05-19T08:28:45.224Z,97519.03
2023-05-19T08:34:06.206Z,97520.97
2023-05-19T08:39:27.451Z,97522.72
2023-05-19T08:44:48.448Z,97520.47
2023-05-19T08:50:13.479Z,97519.31
2023-05-19T08:55:44.626Z,97515.28
2023-05-19T09:01:06.856Z,97509.53
2023-05-19T09:06:28.133Z,97511.09
2023-05-19T09:11:49.300Z,97503.06
2023-05-19T09:17:10.687Z,97498.53
2023-05-19T09:22:35.972Z,97502.69
2023-05-19T09:27:57.358Z,97490.69
2023-05-19T09:33:20.106Z,97483.88
2023-05-19T09:38:41.584Z,97495.06
2023-05-19T09:44:02.899Z,97486.72
2023-05-19T09:49:25.466Z,97488.16
2023-05-19T09:54:48.729Z,97489.16
2023-05-19T10:00:19.989Z,97493.63
2023-05-19T10:05:42.108Z,97489.44
2023-05-19T10:11:03.604Z,97487.03
2023-05-19T10:16:26.836Z,97482.34
2023-05-19T10:21:47.816Z,97472.53
2023-05-19T10:27:12.052Z,97466.19
2023-05-19T10:32:34.413Z,97467.22
2023-05-19T10:38:14.483Z,97479.41
2023-05-19T10:43:52.099Z,97469.50
2023-05-19T10:49:23.622Z,97460.31
2023-05-19T10:54:47.416Z,97461.97
2023-05-19T11:00:28.622Z,97466.44
2023-05-19T11:05:52.368Z,97463.53
2023-05-19T11:11:17.604Z,97458.75
2023-05-19T11:16:41.849Z,97458.66
2023-05-19T11:22:13.132Z,97455.78
2023-05-19T11:27:38.365Z,97454.31
2023-05-19T11:33:00.032Z,97447.56
2023-05-19T11:38:22.149Z,97446.22
2023-05-19T11:43:43.108Z,97451.69
2023-05-19T11:49:05.797Z,97447.25
2023-05-19T11:54:37.448Z,97445.22
2023-05-19T12:00:02.643Z,97453.81
2023-05-19T12:05:27.224Z,97448.72
2023-05-19T12:10:52.433Z,97458.81
2023-05-19T12:16:13.865Z,97458.53
2023-05-19T12:21:35.869Z,97462.00
2023-05-19T12:27:28.890Z,97455.06
2023-05-19T12:32:52.023Z,97451.09
2023-05-19T12:38:14.546Z,97447.84
2023-05-19T12:43:39.565Z,97448.16
2023-05-19T12:49:01.253Z,97448.84
2023-05-19T12:54:22.345Z,97439.19
2023-05-19T12:59:43.989Z,97446.13
2023-05-19T13:05:05.786Z,97448.44
2023-05-19T13:10:28.306Z,97448.13
2023-05-19T13:15:49.490Z,97448.13
2023-05-19T13:21:11.291Z,97440.19
2023-05-19T13:26:32.164Z,97446.41
2023-05-19T13:31:52.819Z,97448.16
2023-05-19T13:37:13.820Z,97436.00
2023-05-19T13:42:35.387Z,97433.06
2023-05-19T13:47:56.740Z,97437.16
2023-05-19T13:53:17.936Z,97426.34
2023-05-19T13:58:38.847Z,97427.47
2023-05-19T14:04:00.900Z,97432.09
2023-05-19T14:09:22.064Z,97427.31
2023-05-19T14:14:43.536Z,97426.03
2023-05-19T14:20:04.828Z,97425.66
2023-05-19T14:25:25.762Z,97425.31
2023-05-19T14:30:46.525Z,97428.59
2023-05-19T14:36:09.108Z,97432.94
2023-05-19T14:41:30.556Z,97437.16
2023-05-19T14:46:51.720Z,97423.19
2023-05-19T14:52:12.762Z,97429.94
2023-05-19T14:57:33.429Z,97429.91
2023-05-19T15:02:54.880Z,97425.16
2023-05-19T15:08:16.079Z,97421.22
2023-05-19T15:13:37.245Z,97423.06
2023-05-19T15:18:58.217Z,97423.84
2023-05-19T15:24:19.325Z,97418.94
2023-05-19T15:29:40.656Z,97418.06
2023-05-19T15:35:01.374Z,97424.41
2023-05-19T15:40:22.401Z,97419.78
2023-05-19T15:45:43.164Z,97418.75
2023-05-19T15:51:04.259Z,97421.34
2023-05-19T15:56:24.973Z,97422.13
2023-05-19T16:01:46.166Z,97418.16
2023-05-19T16:07:07.342Z,97424.75
2023-05-19T16:12:29.571Z,97418.53
2023-05-19T16:17:50.432Z,97421.50
2023-05-19T16:23:11.321Z,97424.97
2023-05-19T16:28:32.673Z,97422.28
2023-05-19T16:33:54.070Z,97419.59
2023-05-19T16:39:15.750Z,97414.16
2023-05-19T16:44:36.731Z,97410.03
2023-05-19T16:49:57.494Z,97415.22
2023-05-19T16:55:20.128Z,97406.84
2023-05-19T17:00:41.220Z,97416.84
2023-05-19T17:06:02.032Z,97413.91
2023-05-19T17:11:23.035Z,97412.22
2023-05-19T17:16:44.521Z,97416.91
2023-05-19T17:22:05.583Z,97414.63
2023-05-19T17:27:26.450Z,97420.63
2023-05-19T17:32:47.747Z,97426.19
2023-05-19T17:38:08.873Z,97426.09
2023-05-19T17:43:29.893Z,97427.19
2023-05-19T17:48:50.877Z,97432.50
2023-05-19T17:54:12.372Z,97436.09
2023-05-19T17:59:33.866Z,97434.66
2023-05-19T18:04:55.740Z,97434.44
2023-05-19T18:10:17.607Z,97433.69
2023-05-19T18:15:38.576Z,97435.78
2023-05-19T18:21:00.180Z,97433.56
2023-05-19T18:26:21.603Z,97436.63
2023-05-19T18:31:44.584Z,97437.91
2023-05-19T18:37:05.626Z,97443.22
2023-05-19T18:42:26.687Z,97430.81
2023-05-19T18:47:47.876Z,97444.06
2023-05-19T18:53:08.739Z,97442.84
2023-05-19T18:58:29.582Z,97442.59
2023-05-19T19:03:50.671Z,97448.56
2023-05-19T19:09:11.921Z,97457.94
2023-05-19T19:14:32.484Z,97452.06
2023-05-19T19:19:53.528Z,97450.84
2023-05-19T19:25:14.971Z,97466.00
2023-05-19T19:30:36.577Z,97473.16
2023-05-19T19:35:57.825Z,97478.81
2023-05-19T19:41:20.006Z,97476.19
2023-05-19T19:46:41.290Z,97472.47
2023-05-19T19:52:02.494Z,97466.56
2023-05-19T19:57:24.545Z,97467.69
2023-05-19T20:03:02.971Z,97468.91
2023-05-19T20:08:26.373Z,97469.06
2023-05-19T20:13:47.673Z,97471.41
2023-05-19T20:19:09.365Z,97474.56
2023-05-19T20:24:30.303Z,97476.63
2023-05-19T20:29:51.109Z,97477.84
2023-05-19T20:35:12.675Z,97475.78
2023-05-19T20:40:33.876Z,97482.25
2023-05-19T20:45:58.018Z,97467.66
2023-05-19T20:51:19.689Z,97463.66
2023-05-19T20:56:42.280Z,97471.44
2023-05-19T21:02:03.558Z,97469.09
2023-05-19T21:07:25.551Z,97458.19
2023-05-19T21:12:46.880Z,97457.75
2023-05-19T21:18:08.481Z,97460.63
2023-05-19T21:23:29.257Z,97462.91
2023-05-19T21:28:50.144Z,97464.41
2023-05-19T21:34:11.030Z,97457.06
2023-05-19T21:39:31.913Z,97478.63
2023-05-19T21:44:52.691Z,97481.09
2023-05-19T21:50:17.632Z,97487.00
2023-05-19T21:55:39.448Z,97492.22
2023-05-19T22:01:00.604Z,97485.47
2023-05-19T22:06:22.082Z,97487.81
2023-05-19T22:11:43.417Z,97492.09
2023-05-19T22:17:04.399Z,97493.19
2023-05-19T22:22:25.583Z,97482.03
2023-05-19T22:27:46.473Z,97482.03
2023-05-19T22:33:08.705Z,97472.41
2023-05-19T22:38:29.828Z,97453.84
2023-05-19T22:43:50.898Z,97454.41
2023-05-19T22:49:12.057Z,97450.03
2023-05-19T22:54:35.315Z,97452.09
2023-05-19T22:59:56.508Z,97452.59
2023-05-19T23:05:17.445Z,97446.00
2023-05-19T23:10:38.477Z,97451.78
2023-05-19T23:15:59.691Z,97443.59
2023-05-19T23:21:20.594Z,97435.75
2023-05-19T23:26:44.615Z,97430.44
2023-05-19T23:32:05.802Z,97435.50
2023-05-19T23:37:26.711Z,97441.97
2023-05-19T23:42:47.456Z,97440.84
2023-05-19T23:48:08.268Z,97437.66
2023-05-19T23:53:29.511Z,97425.81
2023-05-19T23:58:50.563Z,97426.00
